Hunt, Texas
Current Conditions -  °F | °C
As of 1:15 AM on Friday 31 Oct 2014 (Local Time) from KERV Reporting Station
Thunderstorm Thunderstorm  
Wind Chill: 18°   Ceiling: Unl
Heat Index: 18°   Visibility: 10mi
Dew Point: 15°   Wind: 0mph
Humidity: 86%   Direction: NA
Pressure: 30.14"   Gusts: NA
Location:  30.07°N, 99.34°W
Report Text: KERV 310615Z AUTO 00000KT 10SM VCTS CLR 18/15 A3014 RMK AO2 LTG DSNT NE AND E T01760153
Loading
Personal Weather Stations






























Interactive Weather Map
Tropical Storm Tracking
New forecast layout! Learn more

10-Day Weather Forecast

Advertisements
Track Severe Weather on mobile